Flight Track Log - Related Links

Times and Time Zones

All times are in EDT time to prevent confusion due to time zone crossing. See the FLG3429 flight status page for this flight to view local times or setup timezone preferences in your user account.

Time Position Orientation Groundspeed Altitude Reporting Facility
EDT Latitude Longitude Course Direction KTS MPH feet Rate Location/Type
Tue 04:26:32 PM 46.2253 -119.1981 72° East 203 234 3,000  Level Salt Lake Center
Tue 04:27:33 PM 46.2758 -119.1969 North 249 287 4,600 2,098 Climbing Salt Lake Center
Tue 04:28:00 PM 46.3670 -118.6265 73° East  Level FlightAware Approximate
Tue 04:28:35 PM 46.3039 -119.0972 68° East 258 297 7,300  Level Salt Lake Center
Tue 04:29:00 PM 46.4027 -118.4600 73° East  Level FlightAware Approximate
Tue 04:29:37 PM 46.3239 -118.9883 75° East 271 312 9,600  Level Seattle Center
Tue 04:30:00 PM 46.4385 -118.2934 72° East  Level FlightAware Approximate
Tue 04:30:38 PM 46.3486 -118.8706 73° East 298 343 11,200  Level Seattle Center
Tue 04:31:00 PM 46.4761 -118.1255 72° East  Level FlightAware Approximate
Tue 04:31:39 PM 46.3781 -118.7336 73° East 351 404 12,800  Level Seattle Center
Tue 04:32:40 PM 46.4061 -118.5917 74° East 364 419 14,700 1,869 Climbing Seattle Center
Tue 04:33:41 PM 46.4431 -118.4158 73° East 378 435 16,600 1,967 Climbing Seattle Center
Tue 04:34:42 PM 46.4725 -118.2611 75° East 394 453 18,700 1,820 Climbing Seattle Center
Tue 04:35:43 PM 46.5042 -118.1083 73° East 398 458 20,300 1,377 Climbing Seattle Center
Tue 04:36:44 PM 46.5350 -117.9492 74° East 409 471 21,500 1,180 Climbing Seattle Center
Tue 04:37:45 PM 46.5675 -117.7806 74° East 433 498 22,700 1,377 Climbing Seattle Center
Tue 04:38:46 PM 46.6000 -117.6139 74° East 433 498 24,300 1,279 Climbing Seattle Center
Tue 04:39:47 PM 46.6331 -117.4444 74° East 438 504 25,300 1,082 Climbing Seattle Center
Tue 04:40:48 PM 46.6664 -117.2683 75° East 451 519 26,500 1,082 Climbing Seattle Center
Tue 04:41:49 PM 46.7358 -117.1044 58° Northeast 484 557 27,500 1,033 Climbing Seattle Center
Tue 04:42:50 PM 46.8150 -116.9456 54° Northeast 490 564 28,600 1,328 Climbing Seattle Center
Tue 04:43:51 PM 46.9117 -116.7514 54° Northeast 496 571 30,200 1,426 Climbing Seattle Center
Tue 04:44:52 PM 46.9925 -116.5914 53° Northeast 482 555 31,500 1,230 Climbing Seattle Center
Tue 04:45:53 PM 47.0689 -116.4397 53° Northeast 480 552 32,700 1,033 Climbing Seattle Center
Tue 04:46:54 PM 47.1414 -116.2800 56° Northeast 476 548 33,600 639 Climbing Seattle Center
Tue 04:47:55 PM 47.1692 -116.1003 77° East 454 522 34,000 295 Climbing Seattle Center
Tue 04:48:56 PM 47.1800 -115.9128 85° East 461 531 34,200 492 Climbing Seattle Center
Tue 04:49:57 PM 47.1917 -115.7222 85° East 467 537 35,000 393 Climbing Seattle Center
Tue 04:50:58 PM 47.2022 -115.5344 85° East 464 534 35,000  Level Seattle Center
Tue 04:51:59 PM 47.2150 -115.3131 85° East 465 535 35,000  Level Seattle Center
Tue 04:53:00 PM 47.2258 -115.1253 85° East 465 535 35,000  Level Seattle Center
Tue 04:54:01 PM 47.2347 -114.9386 86° East 462 532 35,000  Level Seattle Center
Tue 04:55:02 PM 47.2447 -114.7517 85° East 460 529 35,000 170 Level Seattle Center
Tue 04:56:22 PM 47.2589 -114.4861 85° East 459 528 35,400 423 Climbing Salt Lake Center
Tue 04:57:24 PM 47.2669 -114.3042 86° East 461 531 36,000 290 Climbing Salt Lake Center
Tue 04:58:26 PM 47.2753 -114.1158 86° East 465 535 36,000  Level Salt Lake Center
Tue 04:59:28 PM 47.2842 -113.9272 86° East 466 536 36,000  Level Salt Lake Center
Tue 05:00:30 PM 47.2917 -113.7408 87° East 461 531 36,000  Level Salt Lake Center
Tue 05:01:32 PM 47.3414 -113.5656 67° East 475 547 36,000  Level Salt Lake Center
Tue 05:02:34 PM 47.4283 -113.3708 57° Northeast 476 548 36,000  Level Salt Lake Center
Tue 05:03:36 PM 47.5111 -113.2197 51° Northeast 477 549 36,000  Level Salt Lake Center
Tue 05:04:37 PM 47.5939 -113.0650 52° Northeast 482 555 36,000  Level Salt Lake Center
Tue 05:05:39 PM 47.6703 -112.9147 53° Northeast 482 555 36,000  Level Salt Lake Center
Tue 05:06:41 PM 47.7544 -112.7503 53° Northeast 481 554 36,000  Level Salt Lake Center
Tue 05:07:43 PM 47.8533 -112.5592 52° Northeast 486 559 36,000  Level Salt Lake Center
Tue 05:08:45 PM 47.9319 -112.4036 53° Northeast 486 559 36,000  Level Salt Lake Center
Tue 05:09:47 PM 47.9842 -112.2222 67° East 478 550 36,000  Level Salt Lake Center
Tue 05:10:49 PM 47.9917 -112.0242 87° East 478 550 36,000  Level Salt Lake Center
Tue 05:11:51 PM 47.9864 -111.8303 92° East 472 543 36,000  Level Salt Lake Center
Tue 05:12:53 PM 47.9828 -111.6333 91° East 471 542 36,000  Level Salt Lake Center
Tue 05:13:55 PM 47.9789 -111.3986 91° East 470 541 36,000  Level Salt Lake Center
Tue 05:14:57 PM 47.9753 -111.2022 92° East 470 541 36,000  Level Salt Lake Center
Tue 05:15:59 PM 47.9714 -111.0056 92° East 471 542 36,000  Level Salt Lake Center
Tue 05:17:01 PM 47.9667 -110.8103 92° East 470 541 36,000  Level Salt Lake Center
Tue 05:18:02 PM 47.9622 -110.6172 92° East 467 537 36,000  Level Salt Lake Center
Tue 05:19:04 PM 47.9572 -110.4247 92° East 465 535 36,000  Level Salt Lake Center
Tue 05:20:06 PM 47.9514 -110.2311 93° East 466 536 36,000  Level Salt Lake Center
Tue 05:21:08 PM 47.9456 -110.0386 93° East 466 536 36,000  Level Salt Lake Center
Tue 05:22:10 PM 47.9375 -109.8061 93° East 468 539 36,000  Level Salt Lake Center
Tue 05:23:12 PM 47.9314 -109.6111 93° East 470 541 36,000  Level Salt Lake Center
Tue 05:24:14 PM 47.9242 -109.4186 93° East 469 540 36,000  Level Salt Lake Center
Tue 05:25:16 PM 47.9169 -109.2239 93° East 471 542 36,000  Level Salt Lake Center
Tue 05:26:18 PM 47.9078 -109.0308 94° East 469 540 36,000  Level Salt Lake Center
Tue 05:27:20 PM 47.9003 -108.8372 93° East 470 541 36,000  Level Salt Lake Center
Tue 05:28:22 PM 47.8900 -108.6053 94° East 468 539 36,000  Level Salt Lake Center
Tue 05:29:24 PM 47.8814 -108.4122 94° East 468 539 36,000  Level Salt Lake Center
Tue 05:30:26 PM 47.8714 -108.2197 94° East 468 539 36,000  Level Salt Lake Center
Tue 05:31:28 PM 47.8636 -108.0278 93° East 466 536 36,000  Level Salt Lake Center
Tue 05:32:30 PM 47.8539 -107.8367 94° East 466 536 36,000  Level Salt Lake Center
Tue 05:33:32 PM 47.8439 -107.6442 94° East 467 537 36,000  Level Salt Lake Center
Tue 05:34:33 PM 47.8342 -107.4519 94° East 467 537 36,000  Level Salt Lake Center
Tue 05:35:35 PM 47.8197 -107.2342 96° East 469 540 36,000  Level Salt Lake Center
Tue 05:36:37 PM 47.8083 -107.0428 95° East 467 537 36,000  Level Salt Lake Center
Tue 05:37:39 PM 47.7978 -106.8506 95° East 468 539 36,000  Level Salt Lake Center
Tue 05:38:41 PM 47.7858 -106.6572 95° East 470 541 36,000  Level Salt Lake Center
Tue 05:39:43 PM 47.7725 -106.4250 95° East 472 543 36,000  Level Salt Lake Center
Tue 05:40:45 PM 47.7592 -106.2308 96° East 473 544 36,000  Level Salt Lake Center
Tue 05:41:47 PM 47.7458 -106.0350 96° East 476 548 36,000  Level Salt Lake Center
Tue 05:42:49 PM 47.7317 -105.8408 96° East 475 547 36,000  Level Salt Lake Center
Tue 05:43:51 PM 47.7169 -105.6453 96° East 477 549 36,000  Level Salt Lake Center
Tue 05:44:53 PM 47.7056 -105.4494 95° East 477 549 36,000  Level Salt Lake Center
Tue 05:45:55 PM 47.6889 -105.2158 96° East 477 549 36,000  Level Salt Lake Center
Tue 05:46:57 PM 47.6736 -105.0217 97° East 476 548 36,000  Level Salt Lake Center
Tue 05:47:59 PM 47.6581 -104.8278 97° East 476 548 36,000  Level Salt Lake Center
Tue 05:49:01 PM 47.6439 -104.6350 96° East 474 545 36,000  Level Salt Lake Center
Tue 05:50:03 PM 47.6286 -104.4414 97° East 474 545 36,000  Level Salt Lake Center
Tue 05:51:05 PM 47.6131 -104.2489 97° East 474 545 36,000  Level Salt Lake Center
Tue 05:52:07 PM 47.5936 -104.0183 97° East 475 547 36,000  Level Salt Lake Center
Tue 05:53:09 PM 47.5767 -103.8289 97° East 476 548 36,000  Level Salt Lake Center
Tue 05:54:11 PM 47.5603 -103.6364 97° East 483 556 36,000  Level Salt Lake Center
Tue 05:55:12 PM 47.5444 -103.4442 97° East 482 555 36,000  Level Salt Lake Center
Tue 05:56:14 PM 47.5242 -103.2125 97° East 479 551 36,000  Level Salt Lake Center
Tue 05:57:16 PM 47.5067 -103.0169 97° East 479 551 36,000  Level Salt Lake Center
Tue 05:58:18 PM 47.4883 -102.8217 98° East 481 554 36,000  Level Salt Lake Center
Tue 05:59:31 PM 47.4667 -102.5875 98° East 484 557 36,000  Level Minneapolis Center
Tue 06:00:33 PM 47.4472 -102.3900 98° East 487 560 36,000  Level Minneapolis Center
Tue 06:01:35 PM 47.4275 -102.1947 98° East 484 557 36,000  Level Minneapolis Center
Tue 06:02:36 PM 47.4031 -101.9594 99° East 484 557 36,000  Level Minneapolis Center
Tue 06:03:38 PM 47.3833 -101.7625 98° East 487 560 36,000  Level Minneapolis Center
Tue 06:04:40 PM 47.3650 -101.5667 98° East 485 558 36,000  Level Minneapolis Center
Tue 06:05:42 PM 47.3436 -101.3747 99° East 478 550 36,000  Level Minneapolis Center
Tue 06:06:44 PM 47.3233 -101.1858 99° East 472 543 36,000  Level Minneapolis Center
Tue 06:07:46 PM 47.3000 -100.9647 99° East 468 539 36,000  Level Minneapolis Center
Tue 06:08:48 PM 47.2733 -100.7781 102° East 468 539 36,000  Level Minneapolis Center
Tue 06:09:50 PM 47.2522 -100.5917 99° East 465 535 36,000  Level Minneapolis Center
Tue 06:10:52 PM 47.2314 -100.4058 99° East 462 532 36,000  Level Minneapolis Center
Tue 06:11:54 PM 47.2083 -100.2208 100° East 463 533 36,000  Level Minneapolis Center
Tue 06:12:56 PM 47.1858 -100.0333 100° East 466 536 36,000  Level Minneapolis Center
Tue 06:13:58 PM 47.1575 -99.8072 100° East 469 540 36,000  Level Minneapolis Center
Tue 06:15:00 PM 47.1392 -99.6575 100° East 469 540 36,000  Level Minneapolis Center
Tue 06:16:02 PM 47.1103 -99.4286 100° East 475 547 36,000  Level Minneapolis Center
Tue 06:17:04 PM 47.0861 -99.2383 100° East 476 548 36,000  Level Minneapolis Center
Tue 06:18:06 PM 47.0619 -99.0486 101° East 476 548 36,000  Level Minneapolis Center
Tue 06:19:20 PM 47.0367 -98.8583 101° East 477 549 36,000  Level Minneapolis Center
Tue 06:20:22 PM 47.0008 -98.5906 101° East 481 554 36,000  Level Minneapolis Center
Tue 06:21:36 PM 46.9717 -98.3614 100° East 481 554 36,000  Level Minneapolis Center
Tue 06:22:38 PM 47.0306 -98.1997 62° Northeast 469 540 36,000  Level Minneapolis Center
Tue 06:23:40 PM 47.1119 -98.0608 49° Northeast 454 522 36,000 -145 Level Minneapolis Center
Tue 06:24:42 PM 47.1781 -97.9097 57° Northeast 457 526 35,700 -484 Descending Minneapolis Center
Tue 06:25:44 PM 47.1336 -97.6892 106° East 489 563 35,000 -309 Descending Minneapolis Center
Tue 06:26:58 PM 47.0769 -97.5133 115° Southeast 483 556 35,000  Level Minneapolis Center
Tue 06:28:01 PM 47.0089 -97.3050 116° Southeast 476 548 35,000  Level Minneapolis Center
Tue 06:29:03 PM 46.9506 -97.1289 116° Southeast 482 555 35,000  Level Minneapolis Center
Tue 06:30:04 PM 46.9047 -96.9839 115° Southeast 489 563 35,000  Level Minneapolis Center
Tue 06:31:07 PM 46.8203 -96.7331 116° Southeast 493 567 35,000  Level Minneapolis Center
Tue 06:32:09 PM 46.7617 -96.5550 116° Southeast 490 564 35,000  Level Minneapolis Center
Tue 06:33:11 PM 46.7033 -96.3808 116° Southeast 483 556 35,000  Level Minneapolis Center
Tue 06:34:13 PM 46.6447 -96.2089 116° Southeast 476 548 35,000  Level Minneapolis Center
Tue 06:35:27 PM 46.5872 -96.0372 116° Southeast 475 547 35,000  Level Minneapolis Center
Tue 06:36:29 PM 46.5147 -95.8283 117° Southeast 484 557 35,000  Level Minneapolis Center
Tue 06:37:31 PM 46.4436 -95.6219 117° Southeast 486 559 35,000  Level Minneapolis Center
Tue 06:38:34 PM 46.3817 -95.4444 117° Southeast 486 559 35,000  Level Minneapolis Center
Tue 06:39:36 PM 46.3392 -95.2436 107° East 485 558 35,000 -435 Level Minneapolis Center
Tue 06:40:38 PM 46.3450 -95.0553 87° East 473 544 34,100 -1,210 Descending Minneapolis Center
Tue 06:41:40 PM 46.3525 -94.8697 87° East 466 536 32,500 -1,548 Descending Minneapolis Center
Tue 06:42:42 PM 46.3592 -94.6839 87° East 465 535 30,900 -1,548 Descending Minneapolis Center
Tue 06:43:44 PM 46.2869 -94.5239 123° Southeast 483 556 29,300 -1,984 Descending Minneapolis Center
Tue 06:44:46 PM 46.1861 -94.3658 133° Southeast 485 558 26,800 -2,468 Descending Minneapolis Center
Tue 06:45:48 PM 46.1042 -94.2383 133° Southeast 451 519 24,200 -2,516 Descending Minneapolis Center
Tue 06:46:50 PM 46.0244 -94.1156 133° Southeast 430 495 21,600 -2,516 Descending Minneapolis Center
Tue 06:47:52 PM 45.9456 -93.9947 133° Southeast 420 483 19,000 -2,758 Descending Minneapolis Center
Tue 06:48:54 PM 45.8544 -93.8544 133° Southeast 406 467 15,900 -2,323 Descending Minneapolis Center
Tue 06:49:56 PM 45.7833 -93.7433 133° Southeast 387 445 14,200 -1,412 Descending Minneapolis Center
Tue 06:51:10 PM 45.7036 -93.6728 148° Southeast 343 395 12,700 -1,182 Descending Minneapolis Center
Tue 06:52:13 PM 45.5989 -93.6156 159° South 338 389 11,500 -816 Descending Minneapolis Center
Tue 06:53:15 PM 45.5108 -93.5697 160° South 339 390 11,000 -242 Descending Minneapolis Center
Tue 06:54:17 PM 45.4053 -93.5131 159° South 339 390 11,000 -290 Level Minneapolis Center
Tue 06:55:19 PM 45.3222 -93.4914 170° South 298 343 10,400 -919 Descending Minneapolis Center
Tue 06:56:21 PM 45.2622 -93.4928 181° South 272 313 9,100 -1,597 Descending Minneapolis Center
Tue 06:57:23 PM 45.1956 -93.5528 212° Southwest 238 274 7,100 -1,403 Descending Minneapolis Center
Tue 06:58:25 PM 45.1450 -93.6089 218° Southwest 234 269 6,200 -1,016 Descending Minneapolis Center
Tue 06:59:27 PM 45.0944 -93.5906 166° South 198 228 5,000 -1,016 Descending Minneapolis Center
Tue 07:00:29 PM 45.0631 -93.5358 129° Southeast 182 209 4,100 -968 Descending Minneapolis Center
Tue 07:01:31 PM 45.0306 -93.4814 130° Southeast 181 208 3,000 -528 Descending Minneapolis Center
Tue 07:02:34 PM 44.9981 -93.4256 129° Southeast 183 211 3,000  Level Minneapolis Center
Tue 07:03:36 PM 44.9631 -93.3736 134° Southeast 183 211 3,000 -290 Level Minneapolis Center
Tue 07:04:38 PM 44.9342 -93.3158 125° Southeast 178 205 2,400 -774 Descending Minneapolis Center
Tue 07:05:40 PM 44.9078 -93.2556 122° Southeast 152 175 1,400 -968 Descending Minneapolis Center
Tue 07:07:00 PM 44.8820 -93.2218 160° South  Level Estimated
Tue 07:14:00 PM 44.8820 -93.2218 160° South  Level Estimated

Login

Don't have an account? Register now (free) for customized features, flight alerts, and more!